Time;durP1;ratioP1;P1;durP2;ratioP2;P2;SDS_P1;SDS_P2;PMS_P1;PMS_P2;Temp;Humidity;BMP_temperature;BMP_pressure;BME280_temperature;BME280_humidity;BME280_pressure;Samples;Min_cycle;Max_cycle;Signal;HPM_P1;HPM_P2
2023/10/04 00:02:06;;;;;;;0.20;0.20;;;;;;;10.96;97.89;95338.34;5133038;27;20296;-77
2023/10/04 00:04:34;;;;;;;0.73;0.73;;;;;;;10.99;96.49;95337.72;5132800;27;20201;-78
2023/10/04 00:07:03;;;;;;;0.20;0.20;;;;;;;10.81;97.01;95330.59;5132989;27;20233;-77
2023/10/04 00:09:31;;;;;;;0.30;0.30;;;;;;;10.76;97.69;95336.97;5132584;27;20278;-77
2023/10/04 00:11:57;;;;;;;0.68;0.43;;;;;;;10.78;97.44;95332.06;5120603;27;20223;-77
2023/10/04 00:14:26;;;;;;;0.55;0.55;;;;;;;10.80;96.55;95340.66;5131262;27;20208;-78
2023/10/04 00:16:53;;;;;;;0.20;0.20;;;;;;;10.79;96.47;95328.25;5132588;27;20210;-77
2023/10/04 00:19:20;;;;;;;0.73;0.73;;;;;;;10.81;95.66;95325.19;5132692;27;20616;-77
2023/10/04 00:21:47;;;;;;;0.70;0.70;;;;;;;10.75;96.06;95323.75;5132945;27;20217;-77
2023/10/04 00:24:14;;;;;;;0.30;0.30;;;;;;;10.72;96.53;95316.22;5132723;27;20225;-77
2023/10/04 00:26:43;;;;;;;0.47;0.47;;;;;;;10.79;96.12;95322.81;5132304;27;20205;-77
2023/10/04 00:29:10;;;;;;;1.48;1.27;;;;;;;10.77;96.13;95326.94;5128826;27;20201;-76
2023/10/04 00:31:38;;;;;;;4.03;2.45;;;;;;;10.75;96.57;95321.03;5132472;27;20219;-74
2023/10/04 00:34:08;;;;;;;3.85;1.73;;;;;;;10.81;96.15;95325.19;5132496;27;20502;-76
2023/10/04 00:36:35;;;;;;;4.10;2.10;;;;;;;10.77;95.45;95326.94;5132093;27;20284;-78
2023/10/04 00:39:02;;;;;;;4.22;2.20;;;;;;;10.71;95.97;95330.88;5131987;27;20259;-77
2023/10/04 00:41:30;;;;;;;5.03;2.60;;;;;;;10.64;96.65;95325.91;5132475;27;20288;-76
2023/10/04 00:43:58;;;;;;;4.60;2.42;;;;;;;10.70;96.20;95324.66;5130414;27;20232;-77
2023/10/04 00:46:26;;;;;;;8.00;2.22;;;;;;;10.75;95.84;95319.13;5119706;27;20214;-77
2023/10/04 00:48:57;;;;;;;7.57;2.50;;;;;;;10.68;95.50;95316.84;5131555;27;20205;-77
2023/10/04 00:51:26;;;;;;;3.92;2.08;;;;;;;10.61;95.47;95321.91;5132575;27;20189;-77
2023/10/04 00:53:55;;;;;;;4.97;2.45;;;;;;;10.59;95.76;95313.28;5131910;27;20575;-78
2023/10/04 00:56:23;;;;;;;3.80;2.25;;;;;;;10.58;95.65;95317.13;5132188;27;20546;-77
2023/10/04 00:58:52;;;;;;;2.83;1.75;;;;;;;10.57;95.91;95326.34;5124802;27;20708;-77
2023/10/04 01:01:19;;;;;;;3.10;1.52;;;;;;;10.60;95.92;95320.31;5132212;27;20197;-77
2023/10/04 01:03:47;;;;;;;0.35;0.35;;;;;;;10.56;95.79;95316.63;5131379;27;20200;-77
2023/10/04 01:06:15;;;;;;;0.20;0.20;;;;;;;10.67;95.53;95322.56;5131895;27;20209;-77
2023/10/04 01:08:43;;;;;;;0.35;0.35;;;;;;;10.58;95.36;95322.53;5131931;27;20563;-77
2023/10/04 01:11:10;;;;;;;3.10;1.90;;;;;;;10.60;94.85;95327.66;5126684;27;20232;-77
2023/10/04 01:13:38;;;;;;;0.65;0.65;;;;;;;10.57;94.70;95320.13;5123339;27;20221;-78
2023/10/04 01:16:09;;;;;;;0.30;0.30;;;;;;;10.52;94.97;95326.47;5131679;27;20205;-78
2023/10/04 01:18:36;;;;;;;0.30;0.30;;;;;;;10.47;95.20;95320.41;5131723;27;20211;-77
2023/10/04 01:21:02;;;;;;;2.55;2.00;;;;;;;10.45;95.32;95323.41;5130906;27;20205;-78
2023/10/04 01:23:31;;;;;;;3.42;2.08;;;;;;;10.40;95.15;95331.66;5131685;27;20200;-77
2023/10/04 01:25:58;;;;;;;3.88;2.40;;;;;;;10.40;95.63;95326.22;5131751;27;20216;-78
2023/10/04 01:28:28;;;;;;;3.42;2.60;;;;;;;10.41;95.39;95333.25;5131407;27;20201;-77
2023/10/04 01:30:57;;;;;;;3.38;1.88;;;;;;;10.31;95.51;95330.81;5130848;27;20205;-78
2023/10/04 01:33:24;;;;;;;0.30;0.30;;;;;;;10.25;95.64;95335.53;5131817;27;20201;-77
2023/10/04 01:35:53;;;;;;;0.30;0.30;;;;;;;10.23;95.96;95337.78;5130981;27;20236;-76
2023/10/04 01:38:24;;;;;;;0.30;0.30;;;;;;;10.23;95.93;95336.97;5129186;27;20299;-76
2023/10/04 01:40:53;;;;;;;0.55;0.55;;;;;;;10.21;97.68;95328.34;5128205;27;20288;-76
2023/10/04 01:43:20;;;;;;;1.02;0.73;;;;;;;10.19;98.15;95333.28;5129322;27;20262;-75
2023/10/04 01:45:50;;;;;;;0.52;0.50;;;;;;;10.20;98.45;95337.56;5130850;27;20233;-75
2023/10/04 01:48:17;;;;;;;0.50;0.50;;;;;;;10.16;98.77;95339.25;5127715;27;20197;-76
2023/10/04 01:50:45;;;;;;;0.47;0.47;;;;;;;10.15;100.00;95334.94;5127282;27;20208;-76
2023/10/04 01:53:13;;;;;;;0.55;0.55;;;;;;;10.11;100.00;95333.97;5112473;28;20284;-74
2023/10/04 01:55:40;;;;;;;0.30;0.30;;;;;;;10.13;100.00;95331.75;5110215;28;20300;-76
2023/10/04 01:58:08;;;;;;;0.65;0.65;;;;;;;10.18;100.00;95328.94;5128749;27;20220;-76
2023/10/04 02:00:36;;;;;;;0.22;0.22;;;;;;;10.17;100.00;95327.31;5130820;28;20197;-76
2023/10/04 02:03:04;;;;;;;3.13;0.43;;;;;;;10.17;100.00;95328.13;5125947;28;20249;-75
2023/10/04 02:05:31;;;;;;;0.20;0.20;;;;;;;10.22;100.00;95330.75;5122635;28;20197;-76
2023/10/04 02:07:59;;;;;;;0.30;0.30;;;;;;;10.21;100.00;95322.94;5131143;28;20236;-76
2023/10/04 02:10:26;;;;;;;0.20;0.20;;;;;;;10.19;100.00;95325.16;5130684;28;20228;-76
2023/10/04 02:12:55;;;;;;;1.65;0.82;;;;;;;10.20;99.91;95329.47;5117023;28;20198;-76
2023/10/04 02:15:24;;;;;;;0.35;0.35;;;;;;;10.21;99.79;95333.75;5123188;28;20274;-76
2023/10/04 02:17:53;;;;;;;0.85;0.28;;;;;;;10.13;99.70;95334.44;5130869;28;20315;-76
2023/10/04 02:20:22;;;;;;;0.30;0.30;;;;;;;10.12;99.44;95324.72;5130726;28;20265;-75
2023/10/04 02:22:49;;;;;;;1.45;1.00;;;;;;;10.20;98.66;95332.97;5127146;28;20201;-75
2023/10/04 02:25:17;;;;;;;1.88;0.60;;;;;;;10.18;98.67;95335.19;5130843;28;20207;-72
2023/10/04 02:27:44;;;;;;;0.68;0.68;;;;;;;10.12;99.18;95336.34;5130240;28;20236;-72
2023/10/04 02:30:15;;;;;;;1.88;0.65;;;;;;;10.18;98.53;95334.34;5130731;28;20250;-72
2023/10/04 02:32:44;;;;;;;0.65;0.65;;;;;;;10.07;98.03;95333.78;5117892;28;20209;-72
2023/10/04 02:35:21;;;;;;;0.20;0.20;;;;;;;10.02;99.13;95336.59;5130989;28;20208;-72
2023/10/04 02:37:53;;;;;;;1.08;0.80;;;;;;;10.04;100.00;95333.59;5130466;28;20276;-72
2023/10/04 02:40:21;;;;;;;0.40;0.40;;;;;;;9.99;99.56;95338.00;5130449;28;20269;-72
2023/10/04 02:42:48;;;;;;;0.45;0.45;;;;;;;10.01;99.47;95339.63;5130371;28;20634;-73
2023/10/04 02:45:18;;;;;;;0.65;0.57;;;;;;;10.02;99.21;95335.81;5129199;28;20253;-72
2023/10/04 02:47:49;;;;;;;0.43;0.43;;;;;;;10.16;97.87;95331.94;5130879;28;20266;-73
2023/10/04 02:50:19;;;;;;;4.35;2.58;;;;;;;10.11;97.10;95333.97;5130750;28;20208;-72
2023/10/04 02:52:45;;;;;;;0.30;0.30;;;;;;;10.04;97.87;95339.81;5130232;28;20208;-73
2023/10/04 02:55:15;;;;;;;0.63;0.63;;;;;;;9.93;97.62;95323.00;5127358;28;20228;-72
2023/10/04 02:57:43;;;;;;;0.30;0.30;;;;;;;9.92;98.90;95332.25;5124423;28;20226;-72
2023/10/04 03:00:16;;;;;;;0.20;0.20;;;;;;;9.95;99.07;95331.63;5130440;28;20328;-72
2023/10/04 03:02:44;;;;;;;3.55;2.15;;;;;;;9.92;99.53;95336.84;5130272;28;20205;-72
2023/10/04 03:05:14;;;;;;;4.10;1.73;;;;;;;9.90;99.22;95336.34;5132111;27;20257;-72
2023/10/04 03:07:43;;;;;;;3.70;2.10;;;;;;;9.90;98.96;95334.44;5122183;27;20250;-72
2023/10/04 03:10:12;;;;;;;4.38;2.08;;;;;;;9.89;99.12;95338.25;5125227;27;20221;-73
2023/10/04 03:12:41;;;;;;;5.10;2.55;;;;;;;9.88;98.77;95330.44;5134321;27;20569;-73
2023/10/04 03:15:10;;;;;;;3.88;1.88;;;;;;;9.85;98.85;95337.25;5133811;27;20201;-73
2023/10/04 03:17:36;;;;;;;4.68;1.77;;;;;;;9.86;98.94;95336.16;5120605;27;20748;-72
2023/10/04 03:20:10;;;;;;;3.78;2.03;;;;;;;9.93;98.35;95333.84;5133782;27;20292;-72
2023/10/04 03:22:42;;;;;;;3.75;1.60;;;;;;;9.96;97.54;95333.22;5134286;27;20224;-72
2023/10/04 03:25:10;;;;;;;0.40;0.40;;;;;;;9.94;97.41;95340.84;5133570;27;20236;-72
2023/10/04 03:27:37;;;;;;;1.65;0.75;;;;;;;9.93;97.37;95339.25;5112993;27;20285;-73
2023/10/04 03:30:05;;;;;;;0.80;0.80;;;;;;;9.95;97.01;95334.34;5110000;27;20661;-72
2023/10/04 03:32:31;;;;;;;2.33;0.95;;;;;;;9.93;97.83;95333.84;5130799;27;20199;-72
2023/10/04 03:35:00;;;;;;;0.73;0.73;;;;;;;9.93;97.39;95336.53;5129725;27;20232;-74
2023/10/04 03:37:30;;;;;;;1.00;0.60;;;;;;;9.92;97.26;95340.34;5130560;27;20201;-73
2023/10/04 03:40:00;;;;;;;0.30;0.30;;;;;;;9.95;97.30;95347.06;5130051;27;20308;-72
2023/10/04 03:42:27;;;;;;;0.22;0.22;;;;;;;9.95;96.69;95341.66;5126657;27;20204;-73
2023/10/04 03:44:55;;;;;;;1.45;0.90;;;;;;;9.94;96.40;95340.84;5132879;27;20323;-73
2023/10/04 03:47:22;;;;;;;0.52;0.52;;;;;;;9.73;96.44;95345.09;5133098;27;20212;-74
2023/10/04 03:49:49;;;;;;;0.38;0.38;;;;;;;9.62;97.54;95336.41;5133160;27;20237;-72
2023/10/04 03:52:16;;;;;;;0.20;0.20;;;;;;;9.69;100.00;95333.31;5133650;27;20296;-73
2023/10/04 03:54:45;;;;;;;0.35;0.30;;;;;;;9.72;100.00;95343.50;5132573;27;20208;-74
2023/10/04 03:57:13;;;;;;;0.45;0.45;;;;;;;9.53;100.00;95334.75;5133486;27;20661;-72
2023/10/04 03:59:40;;;;;;;0.35;0.35;;;;;;;9.58;100.00;95348.94;5133098;27;20736;-72
2023/10/04 04:02:11;;;;;;;0.73;0.73;;;;;;;9.63;100.00;95345.34;5121804;27;20650;-73
2023/10/04 04:04:38;;;;;;;0.43;0.43;;;;;;;9.73;100.00;95339.69;5131930;27;20204;-72
2023/10/04 04:07:05;;;;;;;0.30;0.30;;;;;;;9.76;100.00;95344.50;5133247;27;20204;-72
2023/10/04 04:09:33;;;;;;;0.25;0.25;;;;;;;9.77;100.00;95340.69;5133394;27;20537;-74
2023/10/04 04:12:00;;;;;;;0.30;0.30;;;;;;;9.71;100.00;95336.50;5133227;27;20209;-73
2023/10/04 04:14:30;;;;;;;0.65;0.65;;;;;;;9.65;100.00;95334.22;5133234;27;20572;-73
2023/10/04 04:16:57;;;;;;;1.13;1.02;;;;;;;9.64;100.00;95336.13;5133033;27;20208;-74
2023/10/04 04:19:26;;;;;;;1.38;1.27;;;;;;;9.59;100.00;95344.34;5133136;27;20704;-73
2023/10/04 04:21:57;;;;;;;0.30;0.30;;;;;;;9.57;100.00;95341.13;5133138;27;20344;-74
2023/10/04 04:24:27;;;;;;;0.30;0.30;;;;;;;9.53;100.00;95345.56;5133275;27;20212;-73
2023/10/04 04:26:58;;;;;;;0.45;0.45;;;;;;;9.53;100.00;95349.06;5133164;27;20215;-73
2023/10/04 04:29:25;;;;;;;0.20;0.20;;;;;;;9.57;100.00;95349.25;5133064;27;20201;-74
2023/10/04 04:31:56;;;;;;;6.10;2.65;;;;;;;9.62;100.00;95339.13;5132900;27;20549;-73
2023/10/04 04:34:25;;;;;;;6.28;3.17;;;;;;;9.69;100.00;95330.59;5133274;27;20213;-73
2023/10/04 04:36:52;;;;;;;1.05;1.05;;;;;;;9.71;100.00;95331.06;5132424;27;20288;-73
2023/10/04 04:39:19;;;;;;;0.57;0.57;;;;;;;9.76;100.00;95330.97;5133099;27;20954;-74
2023/10/04 04:41:49;;;;;;;0.95;0.70;;;;;;;9.77;100.00;95329.06;5114663;27;20218;-72
2023/10/04 04:44:20;;;;;;;0.85;0.82;;;;;;;9.88;100.00;95331.25;5131515;27;20225;-72
2023/10/04 04:46:47;;;;;;;0.20;0.20;;;;;;;10.06;100.00;95332.19;5131800;27;20323;-72
2023/10/04 04:49:17;;;;;;;0.47;0.47;;;;;;;10.60;100.00;95328.44;5132321;27;20241;-72
2023/10/04 04:51:44;;;;;;;0.82;0.82;;;;;;;11.45;94.58;95318.25;5132673;27;20575;-72
2023/10/04 04:54:12;;;;;;;0.55;0.55;;;;;;;12.30;88.26;95315.97;5132576;27;20208;-73
2023/10/04 04:56:39;;;;;;;0.75;0.75;;;;;;;13.17;83.93;95317.34;5125934;27;20209;-73
2023/10/04 04:59:08;;;;;;;0.47;0.47;;;;;;;14.02;78.64;95325.34;5111467;28;20241;-74
2023/10/04 05:01:38;;;;;;;0.63;0.63;;;;;;;14.79;75.05;95319.22;5111456;28;20300;-75
2023/10/04 05:04:07;;;;;;;0.45;0.45;;;;;;;15.51;71.91;95309.53;5111701;28;20206;-75
2023/10/04 05:06:36;;;;;;;0.75;0.75;;;;;;;16.08;69.10;95316.75;5111640;28;20217;-73
2023/10/04 05:09:04;;;;;;;0.63;0.60;;;;;;;16.56;67.90;95317.72;5112379;27;20293;-73
2023/10/04 05:11:32;;;;;;;3.42;1.40;;;;;;;16.57;68.46;95322.06;5113967;27;20221;-72
2023/10/04 05:13:59;;;;;;;1.70;0.63;;;;;;;17.01;66.38;95320.97;5132936;27;20204;-74
2023/10/04 05:16:26;;;;;;;0.43;0.43;;;;;;;17.29;64.38;95320.09;5123737;27;20266;-74
2023/10/04 05:18:53;;;;;;;1.90;1.48;;;;;;;17.47;63.82;95309.59;5112120;28;20224;-73
2023/10/04 05:21:20;;;;;;;0.30;0.30;;;;;;;17.80;62.69;95317.44;5112415;28;20317;-73
2023/10/04 05:23:48;;;;;;;0.55;0.55;;;;;;;17.98;62.70;95313.16;5112226;28;20274;-74
2023/10/04 05:26:15;;;;;;;0.40;0.40;;;;;;;18.32;61.68;95315.06;5112074;28;20613;-73
2023/10/04 05:28:42;;;;;;;4.22;2.20;;;;;;;18.51;60.99;95313.50;5113298;27;20205;-73
2023/10/04 05:31:09;;;;;;;3.10;2.38;;;;;;;18.08;62.08;95327.09;5131749;27;20313;-73
2023/10/04 05:33:36;;;;;;;4.05;2.33;;;;;;;18.72;59.62;95320.22;5118021;27;20650;-75
2023/10/04 05:36:04;;;;;;;5.35;2.28;;;;;;;18.95;59.12;95325.78;5131933;27;20201;-74
2023/10/04 05:38:32;;;;;;;3.75;2.30;;;;;;;19.42;57.51;95321.88;5131900;27;20269;-74
2023/10/04 05:41:02;;;;;;;2.25;1.50;;;;;;;19.45;56.85;95312.91;5132032;27;20566;-74
2023/10/04 05:43:29;;;;;;;3.15;1.35;;;;;;;19.92;55.31;95319.97;5127217;27;20201;-73
2023/10/04 05:45:57;;;;;;;0.90;0.88;;;;;;;19.42;56.56;95328.19;5131726;27;20284;-73
2023/10/04 05:48:26;;;;;;;1.45;0.80;;;;;;;19.71;55.48;95320.44;5118504;27;20205;-74
2023/10/04 05:50:55;;;;;;;4.82;2.45;;;;;;;20.18;54.27;95329.00;5131280;27;20300;-74
2023/10/04 05:53:21;;;;;;;5.38;2.42;;;;;;;20.69;53.14;95330.47;5131609;27;20244;-73
2023/10/04 05:55:53;;;;;;;1.08;0.70;;;;;;;19.41;56.06;95334.03;5131539;27;20221;-72
2023/10/04 05:58:22;;;;;;;0.85;0.70;;;;;;;20.02;53.94;95330.34;5131396;27;20209;-74
2023/10/04 06:00:52;;;;;;;1.10;1.00;;;;;;;19.80;54.80;95330.03;5131620;27;20312;-73
2023/10/04 06:03:19;;;;;;;0.80;0.63;;;;;;;20.10;53.39;95334.78;5131723;28;20576;-74
2023/10/04 06:05:46;;;;;;;3.03;1.55;;;;;;;20.17;53.42;95337.63;5131715;28;20205;-74
2023/10/04 06:08:18;;;;;;;0.90;0.70;;;;;;;19.26;55.44;95334.97;5131317;28;20549;-75
2023/10/04 06:10:45;;;;;;;3.80;2.53;;;;;;;18.68;57.00;95348.78;5131197;28;20221;-73
2023/10/04 06:13:12;;;;;;;4.43;2.65;;;;;;;19.70;54.78;95336.13;5122833;27;20715;-74
2023/10/04 06:15:46;;;;;;;4.32;2.08;;;;;;;19.86;54.08;95339.53;5120380;28;20303;-74
2023/10/04 06:18:13;;;;;;;4.75;3.15;;;;;;;19.93;53.84;95341.63;5126937;28;20197;-74
2023/10/04 06:20:40;;;;;;;6.47;2.65;;;;;;;20.55;52.42;95331.91;5127689;28;20228;-73
2023/10/04 06:23:09;;;;;;;1.33;1.23;;;;;;;20.45;52.63;95338.06;5131203;28;20197;-74
2023/10/04 06:25:40;;;;;;;4.05;2.13;;;;;;;21.03;51.37;95336.78;5113331;27;20543;-75
2023/10/04 06:28:07;;;;;;;6.13;2.60;;;;;;;21.01;51.39;95339.94;5113098;28;20198;-72
2023/10/04 06:30:35;;;;;;;4.47;2.67;;;;;;;20.66;51.12;95342.25;5128702;28;20224;-74
2023/10/04 06:33:05;;;;;;;3.38;2.58;;;;;;;20.69;51.26;95341.50;5130415;28;20212;-74
2023/10/04 06:35:33;;;;;;;2.30;1.15;;;;;;;21.01;51.00;95342.69;5127182;28;20253;-75
2023/10/04 06:38:01;;;;;;;3.28;2.15;;;;;;;21.36;49.87;95338.72;5131131;28;20713;-74
2023/10/04 06:40:31;;;;;;;4.38;2.33;;;;;;;21.42;49.04;95346.28;5132540;27;20232;-73
2023/10/04 06:43:00;;;;;;;5.22;2.85;;;;;;;20.93;50.54;95349.25;5134823;27;20205;-74
2023/10/04 06:45:28;;;;;;;5.15;2.85;;;;;;;20.92;50.70;95351.22;5118646;27;20241;-73
2023/10/04 06:47:56;;;;;;;5.80;2.80;;;;;;;20.98;50.89;95348.94;5114167;28;20258;-74
2023/10/04 06:50:28;;;;;;;5.28;3.05;;;;;;;20.61;51.79;95350.84;5121942;27;20204;-73
2023/10/04 06:52:57;;;;;;;5.18;2.90;;;;;;;19.60;54.52;95352.47;5134906;27;20201;-73
2023/10/04 06:55:24;;;;;;;1.33;0.75;;;;;;;19.31;55.66;95367.63;5134008;27;20673;-74
2023/10/04 06:57:51;;;;;;;12.13;4.18;;;;;;;18.54;57.60;95373.94;5133193;27;20209;-74
2023/10/04 07:00:19;;;;;;;7.72;3.58;;;;;;;18.40;57.72;95374.44;5133656;27;20588;-75
2023/10/04 07:02:48;;;;;;;1.35;1.08;;;;;;;18.20;58.43;95381.03;5133340;27;20208;-74
2023/10/04 07:05:18;;;;;;;0.73;0.73;;;;;;;18.15;59.95;95373.09;5132298;27;20205;-73
2023/10/04 07:07:47;;;;;;;1.67;1.58;;;;;;;18.63;58.43;95365.53;5133330;27;20670;-75
2023/10/04 07:10:15;;;;;;;9.00;3.13;;;;;;;18.99;57.86;95378.03;5133222;27;20236;-73
2023/10/04 07:12:43;;;;;;;6.95;3.10;;;;;;;18.09;59.21;95377.25;5119507;27;20612;-74
2023/10/04 07:15:11;;;;;;;1.42;1.27;;;;;;;18.13;60.08;95374.59;5132846;27;20208;-74
2023/10/04 07:17:40;;;;;;;6.75;3.70;;;;;;;17.90;60.64;95367.03;5133037;27;20295;-74
2023/10/04 07:20:13;;;;;;;0.82;0.73;;;;;;;18.37;59.85;95375.16;5121123;27;20286;-74
2023/10/04 07:22:40;;;;;;;1.05;0.95;;;;;;;18.20;59.55;95370.06;5132225;27;20201;-74
2023/10/04 07:25:09;;;;;;;1.48;1.23;;;;;;;18.58;59.14;95361.13;5132693;27;20215;-74
2023/10/04 07:27:36;;;;;;;1.15;1.05;;;;;;;18.59;58.66;95359.16;5133083;27;20205;-75
2023/10/04 07:30:04;;;;;;;1.50;0.82;;;;;;;18.82;57.66;95354.56;5133517;27;20212;-74
2023/10/04 07:32:32;;;;;;;10.25;3.53;;;;;;;18.55;58.53;95358.28;5120978;27;20588;-74
2023/10/04 07:35:00;;;;;;;5.35;3.00;;;;;;;18.76;58.04;95353.25;5119866;27;20574;-74
2023/10/04 07:37:27;;;;;;;8.77;3.80;;;;;;;18.77;57.81;95346.59;5121929;27;20536;-74
2023/10/04 07:39:53;;;;;;;4.85;3.53;;;;;;;19.15;57.23;95352.03;5133904;27;20725;-73
2023/10/04 07:42:22;;;;;;;2.58;0.93;;;;;;;19.25;56.62;95347.13;5134663;27;20201;-75
2023/10/04 07:44:49;;;;;;;2.00;0.88;;;;;;;18.96;56.83;95352.09;5117662;27;20237;-78
2023/10/04 07:47:15;;;;;;;7.78;3.80;;;;;;;18.67;57.42;95347.97;5113196;28;20205;-74
2023/10/04 07:49:42;;;;;;;3.97;1.98;;;;;;;18.89;56.98;95343.69;5113021;28;20700;-73
2023/10/04 07:52:09;;;;;;;4.95;3.38;;;;;;;18.87;57.75;95348.75;5112447;28;20304;-74
2023/10/04 07:54:37;;;;;;;6.57;3.42;;;;;;;18.06;58.66;95347.78;5112848;28;20213;-74
2023/10/04 07:57:04;;;;;;;5.20;3.40;;;;;;;18.18;58.84;95347.66;5112770;28;20213;-74
2023/10/04 07:59:32;;;;;;;1.20;1.05;;;;;;;18.52;58.16;95342.53;5113247;28;20316;-74
2023/10/04 08:01:59;;;;;;;1.52;1.42;;;;;;;18.72;59.05;95350.41;5113184;28;20542;-74
2023/10/04 08:04:26;;;;;;;0.80;0.80;;;;;;;18.55;58.19;95348.09;5112724;28;20216;-73
2023/10/04 08:06:53;;;;;;;1.85;1.35;;;;;;;18.41;58.48;95342.31;5112712;28;20260;-72
2023/10/04 08:09:21;;;;;;;7.65;3.45;;;;;;;18.43;57.90;95340.81;5112799;28;20213;-75
2023/10/04 08:11:50;;;;;;;2.13;1.17;;;;;;;18.73;57.47;95332.00;5123505;27;20217;-75
2023/10/04 08:14:21;;;;;;;1.33;1.13;;;;;;;18.44;57.96;95331.41;5133549;27;20299;-74
2023/10/04 08:16:50;;;;;;;2.63;1.65;;;;;;;18.80;57.11;95326.66;5133182;27;20204;-75
2023/10/04 08:19:17;;;;;;;4.38;1.40;;;;;;;19.24;55.61;95338.09;5133483;27;20208;-75
2023/10/04 08:21:45;;;;;;;0.65;0.65;;;;;;;19.41;55.86;95334.03;5132889;27;20356;-73
2023/10/04 08:24:13;;;;;;;2.47;1.17;;;;;;;19.09;56.65;95331.53;5132800;27;20201;-74
2023/10/04 08:26:41;;;;;;;0.88;0.82;;;;;;;19.39;56.73;95311.66;5133411;27;20216;-73
2023/10/04 08:29:08;;;;;;;0.73;0.70;;;;;;;19.23;56.91;95319.22;5132572;27;20208;-75
2023/10/04 08:31:36;;;;;;;4.15;1.85;;;;;;;19.43;56.04;95321.53;5133195;27;20201;-74
2023/10/04 08:34:04;;;;;;;2.42;0.90;;;;;;;19.73;55.42;95296.13;5132590;27;20213;-74
2023/10/04 08:36:33;;;;;;;7.68;3.38;;;;;;;19.79;55.45;95309.19;5132777;27;20215;-73
2023/10/04 08:39:00;;;;;;;1.98;1.38;;;;;;;19.48;56.75;95304.75;5125308;27;20209;-74
2023/10/04 08:41:28;;;;;;;5.50;3.30;;;;;;;19.61;55.19;95308.13;5112260;28;20278;-74
2023/10/04 08:43:55;;;;;;;6.53;3.97;;;;;;;19.64;54.86;95312.88;5119938;27;20236;-74
2023/10/04 08:46:23;;;;;;;6.68;3.58;;;;;;;20.05;55.36;95307.59;5112099;28;20197;-74
2023/10/04 08:48:53;;;;;;;4.45;3.20;;;;;;;20.12;54.09;95307.69;5093879;28;20206;-74
2023/10/04 08:51:30;;;;;;;1.48;0.98;;;;;;;20.08;54.09;95302.16;5112137;28;20208;-74
2023/10/04 08:54:10;;;;;;;5.03;1.10;;;;;;;20.04;53.56;95300.50;5122621;27;20211;-74
2023/10/04 08:56:47;;;;;;;5.20;3.30;;;;;;;20.11;53.01;95297.84;5118624;27;20204;-75
2023/10/04 08:59:15;;;;;;;7.75;3.35;;;;;;;20.32;53.01;95300.91;5132170;27;20325;-75
2023/10/04 09:01:42;;;;;;;2.22;1.63;;;;;;;20.65;52.16;95302.09;5132320;27;20233;-75
2023/10/04 09:04:10;;;;;;;4.55;2.70;;;;;;;20.85;51.75;95303.53;5117453;27;20210;-75
2023/10/04 09:06:42;;;;;;;6.13;2.75;;;;;;;21.35;50.69;95296.59;5132619;27;20293;-75
2023/10/04 09:09:11;;;;;;;6.70;3.10;;;;;;;21.20;50.38;95295.66;5132473;27;20893;-74
2023/10/04 09:11:38;;;;;;;6.72;3.35;;;;;;;20.93;52.39;95302.44;5132548;27;20228;-73
2023/10/04 09:14:06;;;;;;;3.45;1.80;;;;;;;20.73;52.33;95301.84;5132234;27;20225;-74
2023/10/04 09:16:33;;;;;;;0.80;0.77;;;;;;;20.50;53.12;95306.66;5132222;27;20250;-73
2023/10/04 09:19:17;;;;;;;6.40;3.55;;;;;;;20.55;52.77;95301.63;5128703;27;20217;-74
2023/10/04 09:21:47;;;;;;;4.25;1.85;;;;;;;20.75;52.16;95299.50;5123819;27;20252;-73
2023/10/04 09:24:16;;;;;;;2.70;1.70;;;;;;;20.86;51.57;95291.34;5132092;27;20205;-74
2023/10/04 09:26:58;;;;;;;4.95;1.63;;;;;;;20.85;52.02;95289.75;5132188;27;20245;-75
2023/10/04 09:29:32;;;;;;;2.78;1.52;;;;;;;21.22;51.74;95276.78;5132385;27;20572;-76
2023/10/04 09:32:01;;;;;;;8.25;3.08;;;;;;;21.33;50.77;95285.13;5100874;27;20730;-75
2023/10/04 09:34:29;;;;;;;5.28;3.50;;;;;;;20.97;51.66;95281.22;5111243;28;20277;-76
2023/10/04 09:36:58;;;;;;;6.15;2.90;;;;;;;21.26;51.22;95283.13;5114729;27;20284;-74
2023/10/04 09:39:27;;;;;;;5.82;3.72;;;;;;;20.86;50.99;95288.59;5131992;27;20261;-75
2023/10/04 09:41:56;;;;;;;5.70;3.20;;;;;;;20.58;51.90;95287.09;5131444;27;20259;-74
2023/10/04 09:44:24;;;;;;;5.60;3.60;;;;;;;20.78;52.05;95290.47;5123219;27;20672;-73
2023/10/04 09:46:56;;;;;;;5.13;3.33;;;;;;;21.01;51.64;95282.06;5131613;27;20208;-76
2023/10/04 09:49:24;;;;;;;5.30;2.70;;;;;;;21.43;50.01;95276.19;5118535;27;20223;-74
2023/10/04 09:51:55;;;;;;;5.75;3.00;;;;;;;21.62;49.54;95277.91;5112805;27;20215;-75
2023/10/04 09:54:24;;;;;;;8.27;3.03;;;;;;;21.70;49.29;95271.28;5131488;27;20207;-75
2023/10/04 09:56:54;;;;;;;4.47;3.17;;;;;;;21.74;49.20;95268.53;5131663;27;20258;-74
2023/10/04 09:59:23;;;;;;;6.30;3.03;;;;;;;21.72;48.96;95271.69;5131356;27;20207;-74
2023/10/04 10:01:55;;;;;;;6.43;3.38;;;;;;;21.93;49.71;95276.56;5131747;27;20680;-75
2023/10/04 10:04:27;;;;;;;6.25;3.08;;;;;;;22.01;48.47;95283.72;5131514;28;20283;-75
2023/10/04 10:07:09;;;;;;;5.53;2.97;;;;;;;21.97;48.38;95277.38;5131284;28;20207;-77
2023/10/04 10:09:48;;;;;;;4.18;2.63;;;;;;;22.14;47.78;95259.38;5131505;28;20196;-74
2023/10/04 10:12:15;;;;;;;6.50;3.15;;;;;;;22.35;47.65;95253.94;5117277;28;20206;-75
2023/10/04 10:14:43;;;;;;;4.38;2.53;;;;;;;22.41;47.49;95257.94;5120157;27;20208;-74
2023/10/04 10:17:12;;;;;;;4.53;2.33;;;;;;;22.54;46.56;95256.41;5135275;27;20201;-74
2023/10/04 10:19:39;;;;;;;3.90;2.35;;;;;;;22.60;47.43;95254.84;5135220;27;20212;-75
2023/10/04 10:22:08;;;;;;;4.50;2.28;;;;;;;22.73;46.42;95252.50;5135325;27;20285;-76
2023/10/04 10:24:42;;;;;;;5.28;3.08;;;;;;;22.58;46.38;95243.38;5135555;27;20217;-74
2023/10/04 10:27:10;;;;;;;6.05;2.47;;;;;;;23.03;45.61;95232.88;5135297;27;20204;-74
2023/10/04 10:29:37;;;;;;;4.68;2.70;;;;;;;23.41;44.45;95231.31;5135457;27;20307;-74
2023/10/04 10:32:13;;;;;;;2.85;2.42;;;;;;;23.28;44.18;95225.38;5134996;27;20209;-75
2023/10/04 10:34:40;;;;;;;5.32;2.22;;;;;;;23.49;44.47;95223.81;5124116;27;20205;-75
2023/10/04 10:37:12;;;;;;;6.90;2.92;;;;;;;23.66;44.49;95215.53;5133314;27;20193;-74
2023/10/04 10:39:46;;;;;;;3.90;2.35;;;;;;;23.86;43.12;95207.59;5135179;27;20205;-74
2023/10/04 10:42:15;;;;;;;4.55;2.92;;;;;;;24.17;41.66;95211.47;5135311;27;20231;-74
2023/10/04 10:44:42;;;;;;;5.85;2.58;;;;;;;23.96;41.11;95195.69;5120420;27;20327;-74
2023/10/04 10:47:23;;;;;;;5.32;2.17;;;;;;;23.86;41.62;95204.03;5114723;28;20210;-75
2023/10/04 10:49:55;;;;;;;4.95;2.25;;;;;;;23.84;40.58;95198.91;5131565;27;20262;-75
2023/10/04 10:52:23;;;;;;;3.90;2.00;;;;;;;23.97;41.08;95197.28;5113836;27;20284;-77
2023/10/04 10:54:51;;;;;;;5.15;2.45;;;;;;;24.45;40.38;95199.53;5127437;27;20208;-78
2023/10/04 10:57:22;;;;;;;4.05;2.30;;;;;;;24.52;40.68;95196.72;5143136;27;20204;-78
2023/10/04 10:59:49;;;;;;;2.60;2.13;;;;;;;24.54;39.38;95201.84;5141259;27;20204;-78
2023/10/04 11:02:16;;;;;;;5.55;2.40;;;;;;;24.45;40.96;95199.53;5144376;27;20581;-79
2023/10/04 11:04:43;;;;;;;4.13;2.28;;;;;;;24.80;38.72;95188.25;5138759;27;20212;-79
2023/10/04 11:07:11;;;;;;;5.82;2.20;;;;;;;25.09;38.00;95182.53;5132689;27;20212;-79
2023/10/04 11:09:39;;;;;;;4.63;2.17;;;;;;;25.12;38.68;95181.72;5130844;27;20242;-79
2023/10/04 11:12:08;;;;;;;5.93;1.88;;;;;;;24.78;36.86;95185.09;5112285;27;20597;-77
2023/10/04 11:14:37;;;;;;;2.00;1.42;;;;;;;24.66;36.20;95182.78;5131432;27;20250;-77
2023/10/04 11:17:05;;;;;;;3.17;1.63;;;;;;;24.76;32.92;95198.53;5132576;27;20225;-78
2023/10/04 11:19:34;;;;;;;4.00;1.65;;;;;;;24.75;34.50;95177.56;5131954;27;20287;-78
2023/10/04 11:22:02;;;;;;;3.63;1.88;;;;;;;24.99;33.26;95172.31;5131313;27;20568;-78
2023/10/04 11:24:29;;;;;;;3.13;1.65;;;;;;;25.32;34.23;95174.41;5130367;27;20193;-78
2023/10/04 11:26:57;;;;;;;2.83;1.83;;;;;;;25.18;33.75;95169.00;5129134;27;20223;-75
2023/10/04 11:29:28;;;;;;;3.75;1.55;;;;;;;25.05;33.17;95170.69;5132931;27;20205;-76
2023/10/04 11:31:59;;;;;;;3.50;1.92;;;;;;;24.79;33.74;95169.25;5132546;27;20196;-76
2023/10/04 11:34:27;;;;;;;2.63;1.33;;;;;;;25.10;33.48;95168.25;5131828;27;20224;-77
2023/10/04 11:37:00;;;;;;;3.17;1.55;;;;;;;25.06;33.15;95161.16;5130766;27;20283;-76
2023/10/04 11:39:33;;;;;;;2.22;1.40;;;;;;;25.03;32.72;95161.97;5133352;27;20636;-78
2023/10/04 11:42:01;;;;;;;2.92;1.55;;;;;;;25.22;34.37;95155.09;5130899;27;20232;-77